createdAt,value
2022-09-03T00:01:29.710Z,2.72
2022-09-03T00:04:53.797Z,3.05
2022-09-03T00:08:21.005Z,3.33
2022-09-03T00:11:27.324Z,3.00
2022-09-03T00:14:38.260Z,3.15
2022-09-03T00:17:48.548Z,2.78
2022-09-03T00:21:32.458Z,2.97
2022-09-03T00:24:37.034Z,2.55
2022-09-03T00:27:40.800Z,2.75
2022-09-03T00:30:46.397Z,2.90
2022-09-03T00:33:51.896Z,3.15
2022-09-03T00:36:54.168Z,2.70
2022-09-03T00:39:57.204Z,3.10
2022-09-03T00:43:15.733Z,2.92
2022-09-03T00:46:27.299Z,3.08
2022-09-03T00:49:44.749Z,2.72
2022-09-03T00:53:08.124Z,2.72
2022-09-03T00:56:16.435Z,3.00
2022-09-03T00:59:47.900Z,2.85
2022-09-03T01:02:56.866Z,3.03
2022-09-03T01:06:01.832Z,2.80
2022-09-03T01:09:25.892Z,2.80
2022-09-03T01:12:53.138Z,2.85
2022-09-03T01:16:19.850Z,2.87
2022-09-03T01:20:04.199Z,2.92
2022-09-03T01:23:24.876Z,2.97
2022-09-03T01:26:47.302Z,3.00
2022-09-03T01:30:00.360Z,3.20
2022-09-03T01:33:40.324Z,3.35
2022-09-03T01:36:49.889Z,3.25
2022-09-03T01:40:17.457Z,2.58
2022-09-03T01:43:45.258Z,2.92
2022-09-03T01:46:52.391Z,2.67
2022-09-03T01:49:59.880Z,2.90
2022-09-03T01:53:13.696Z,2.85
2022-09-03T01:56:37.422Z,3.20
2022-09-03T01:59:59.069Z,3.00
2022-09-03T02:03:05.897Z,2.87
2022-09-03T02:06:09.528Z,2.60
2022-09-03T02:09:11.750Z,2.70
2022-09-03T02:12:20.205Z,2.60
2022-09-03T02:15:23.727Z,2.95
2022-09-03T02:18:31.148Z,2.87
2022-09-03T02:21:37.005Z,2.60
2022-09-03T02:24:39.296Z,3.05
2022-09-03T02:27:41.938Z,2.75
2022-09-03T02:30:44.608Z,2.70
2022-09-03T02:33:49.088Z,2.65
2022-09-03T02:36:52.561Z,2.83
2022-09-03T02:39:55.154Z,2.80
2022-09-03T02:42:57.869Z,2.70
2022-09-03T02:46:02.797Z,2.87
2022-09-03T02:49:05.813Z,2.50
2022-09-03T02:52:09.884Z,2.97
2022-09-03T02:55:12.182Z,2.90
2022-09-03T02:58:14.478Z,2.87
2022-09-03T03:01:21.791Z,2.70
2022-09-03T03:04:26.517Z,3.12
2022-09-03T03:07:32.663Z,3.10
2022-09-03T03:10:35.315Z,2.60
2022-09-03T03:13:37.610Z,2.83
2022-09-03T03:16:39.910Z,2.80
2022-09-03T03:19:42.451Z,3.85
2022-09-03T03:22:44.721Z,3.00
2022-09-03T03:25:47.231Z,3.15
2022-09-03T03:28:50.734Z,3.05
2022-09-03T03:31:52.993Z,2.95
2022-09-03T03:34:55.218Z,4.30
2022-09-03T03:38:00.420Z,3.08
2022-09-03T03:41:18.740Z,3.35
2022-09-03T03:44:20.961Z,3.58
2022-09-03T03:47:23.198Z,3.12
2022-09-03T03:50:25.823Z,3.08
2022-09-03T03:53:28.436Z,3.05
2022-09-03T03:56:30.745Z,2.85
2022-09-03T03:59:32.987Z,3.70
2022-09-03T04:02:39.018Z,3.70
2022-09-03T04:05:46.278Z,4.05
2022-09-03T04:08:51.255Z,4.10
2022-09-03T04:11:53.446Z,3.62
2022-09-03T04:14:55.651Z,3.33
2022-09-03T04:17:57.848Z,3.70
2022-09-03T04:21:05.724Z,3.40
2022-09-03T04:24:08.052Z,3.67
2022-09-03T04:27:10.339Z,3.12
2022-09-03T04:30:12.971Z,3.65
2022-09-03T04:33:16.150Z,4.15
2022-09-03T04:36:20.996Z,3.72
2022-09-03T04:39:23.333Z,3.72
2022-09-03T04:42:25.595Z,3.25
2022-09-03T04:45:28.904Z,3.80
2022-09-03T04:48:32.405Z,4.00
2022-09-03T04:51:34.942Z,3.22
2022-09-03T04:54:37.153Z,4.37
2022-09-03T04:57:39.466Z,5.43
2022-09-03T05:00:41.742Z,7.15
2022-09-03T05:03:44.587Z,4.78
2022-09-03T05:06:46.902Z,3.92
2022-09-03T05:09:49.135Z,5.28
2022-09-03T05:13:02.445Z,4.20
2022-09-03T05:16:07.058Z,3.78
2022-09-03T05:19:09.632Z,4.30
2022-09-03T05:22:13.204Z,3.92
2022-09-03T05:25:15.442Z,4.12
2022-09-03T05:28:17.714Z,4.32
2022-09-03T05:31:20.967Z,3.87
2022-09-03T05:34:23.865Z,5.10
2022-09-03T05:37:26.179Z,4.30
2022-09-03T05:40:28.391Z,3.90
2022-09-03T05:43:31.301Z,3.87
2022-09-03T05:46:37.576Z,3.80
2022-09-03T05:49:40.154Z,3.85
2022-09-03T05:52:42.459Z,3.47
2022-09-03T05:55:44.773Z,2.90
2022-09-03T05:59:09.356Z,3.05
2022-09-03T06:02:12.158Z,2.97
2022-09-03T06:05:16.938Z,2.92
2022-09-03T06:08:19.242Z,3.25
2022-09-03T06:11:24.088Z,3.47
2022-09-03T06:14:26.878Z,3.25
2022-09-03T06:17:29.156Z,3.05
2022-09-03T06:20:36.786Z,3.10
2022-09-03T06:23:39.461Z,3.15
2022-09-03T06:26:48.256Z,3.10
2022-09-03T06:29:50.455Z,2.90
2022-09-03T06:32:52.767Z,2.72
2022-09-03T06:35:58.747Z,2.75
2022-09-03T06:39:01.552Z,2.50
2022-09-03T06:42:04.813Z,2.97
2022-09-03T06:45:12.303Z,2.42
2022-09-03T06:48:15.149Z,3.17
2022-09-03T06:51:22.279Z,2.55
2022-09-03T06:54:25.257Z,2.22
2022-09-03T06:57:27.589Z,2.50
2022-09-03T07:00:30.825Z,2.30
2022-09-03T07:03:35.394Z,2.30
2022-09-03T07:06:40.361Z,2.30
2022-09-03T07:09:46.356Z,2.05
2022-09-03T07:12:50.507Z,2.15
2022-09-03T07:16:03.914Z,1.90
2022-09-03T07:19:07.428Z,1.92
2022-09-03T07:22:09.951Z,3.33
2022-09-03T07:25:12.230Z,2.87
2022-09-03T07:28:14.439Z,2.47
2022-09-03T07:31:19.740Z,2.72
2022-09-03T07:34:25.560Z,2.10
2022-09-03T07:37:29.011Z,2.65
2022-09-03T07:40:32.308Z,2.65
2022-09-03T07:43:47.149Z,2.40
2022-09-03T07:46:51.356Z,2.20
2022-09-03T07:49:53.965Z,2.37
2022-09-03T07:52:58.600Z,3.03
2022-09-03T07:56:10.943Z,2.30
2022-09-03T07:59:13.292Z,2.20
2022-09-03T08:02:15.549Z,2.55
2022-09-03T08:05:20.458Z,2.72
2022-09-03T08:08:23.918Z,2.33
2022-09-03T08:11:27.358Z,2.55
2022-09-03T08:14:31.793Z,2.45
2022-09-03T08:17:34.202Z,2.67
2022-09-03T08:20:37.759Z,2.33
2022-09-03T08:23:41.715Z,2.37
2022-09-03T08:26:50.603Z,2.55
2022-09-03T08:29:54.100Z,2.40
2022-09-03T08:32:56.702Z,2.30
2022-09-03T08:35:59.263Z,2.90
2022-09-03T08:39:09.939Z,2.35
2022-09-03T08:42:28.636Z,2.08
2022-09-03T08:45:32.118Z,2.17
2022-09-03T08:48:34.802Z,2.08
2022-09-03T08:51:40.418Z,1.90
2022-09-03T08:54:42.916Z,2.35
2022-09-03T08:58:08.593Z,2.40
2022-09-03T09:01:16.402Z,2.15
2022-09-03T09:04:29.945Z,2.00
2022-09-03T09:07:44.487Z,2.15
2022-09-03T09:10:58.557Z,2.30
2022-09-03T09:14:21.761Z,2.35
2022-09-03T09:17:52.414Z,2.53
2022-09-03T09:21:27.389Z,3.05
2022-09-03T09:24:37.925Z,1.90
2022-09-03T09:27:51.704Z,1.87
2022-09-03T09:30:55.858Z,2.47
2022-09-03T09:34:04.841Z,2.10
2022-09-03T09:37:10.981Z,2.37
2022-09-03T09:40:27.463Z,2.47
2022-09-03T09:43:29.686Z,2.20
2022-09-03T09:46:41.097Z,2.40
2022-09-03T09:49:46.910Z,2.53
2022-09-03T09:52:50.745Z,1.90
2022-09-03T09:55:55.778Z,2.30
2022-09-03T09:59:05.136Z,2.60
2022-09-03T10:02:22.290Z,2.53
2022-09-03T10:05:26.371Z,2.80
2022-09-03T10:08:28.619Z,2.30
2022-09-03T10:11:31.111Z,2.10
2022-09-03T10:14:40.009Z,2.20
2022-09-03T10:17:47.915Z,2.83
2022-09-03T10:20:56.071Z,2.15
2022-09-03T10:24:40.280Z,2.22
2022-09-03T10:27:44.957Z,2.00
2022-09-03T10:30:55.591Z,3.35
2022-09-03T10:34:37.150Z,2.15
2022-09-03T10:37:44.069Z,2.17
2022-09-03T10:41:23.586Z,2.08
2022-09-03T10:44:35.371Z,2.25
2022-09-03T10:47:59.658Z,2.00
2022-09-03T10:51:05.960Z,1.52
2022-09-03T10:54:24.348Z,1.70
2022-09-03T10:57:41.651Z,1.30
2022-09-03T11:00:56.097Z,1.65
2022-09-03T11:04:07.601Z,1.25
2022-09-03T11:07:13.531Z,1.60
2022-09-03T11:10:25.005Z,1.67
2022-09-03T11:13:41.766Z,1.20
2022-09-03T11:16:48.754Z,1.70
2022-09-03T11:19:56.114Z,1.20
2022-09-03T11:23:01.973Z,1.50
2022-09-03T11:26:12.823Z,1.85
2022-09-03T11:29:25.212Z,1.35
2022-09-03T11:32:55.929Z,1.33
2022-09-03T11:36:01.045Z,1.20
2022-09-03T11:39:26.644Z,1.83
2022-09-03T11:42:31.795Z,1.10
2022-09-03T11:45:38.022Z,1.37
2022-09-03T11:48:47.955Z,1.30
2022-09-03T11:52:02.089Z,1.35
2022-09-03T11:55:04.679Z,1.30
2022-09-03T11:58:24.400Z,1.45
2022-09-03T12:01:28.322Z,1.50
2022-09-03T12:05:21.883Z,1.90
2022-09-03T12:08:47.238Z,1.40
2022-09-03T12:12:01.363Z,1.70
2022-09-03T12:15:19.246Z,2.00
2022-09-03T12:18:26.438Z,1.80
2022-09-03T12:21:28.685Z,1.60
2022-09-03T12:24:38.374Z,2.35
2022-09-03T12:27:45.498Z,1.80
2022-09-03T12:30:48.411Z,1.75
2022-09-03T12:33:59.163Z,1.40
2022-09-03T12:37:01.667Z,1.62
2022-09-03T12:40:05.974Z,1.50
2022-09-03T12:46:38.113Z,1.33
2022-09-03T12:49:42.770Z,1.20
2022-09-03T12:52:50.883Z,1.30
2022-09-03T12:55:57.125Z,1.45
2022-09-03T12:59:07.004Z,1.70
2022-09-03T13:02:20.183Z,1.30
2022-09-03T13:05:36.269Z,1.65
2022-09-03T13:08:47.502Z,1.40
2022-09-03T13:11:52.411Z,1.48
2022-09-03T13:14:54.837Z,1.48
2022-09-03T13:18:00.170Z,1.42
2022-09-03T13:21:27.793Z,1.45
2022-09-03T13:24:48.794Z,1.60
2022-09-03T13:28:27.708Z,2.37
2022-09-03T13:31:38.227Z,1.20
2022-09-03T13:34:43.284Z,1.83
2022-09-03T13:37:49.511Z,1.62
2022-09-03T13:41:19.712Z,1.33
2022-09-03T13:44:55.704Z,1.23
2022-09-03T13:48:16.539Z,1.85
2022-09-03T13:54:50.251Z,1.42
2022-09-03T13:58:11.318Z,1.50
2022-09-03T14:02:01.122Z,1.50
2022-09-03T14:05:32.353Z,1.50
2022-09-03T14:08:47.034Z,1.58
2022-09-03T14:12:00.920Z,1.30
2022-09-03T14:15:29.495Z,1.30
2022-09-03T14:18:40.779Z,2.00
2022-09-03T14:22:18.493Z,1.77
2022-09-03T14:25:23.416Z,1.58
2022-09-03T14:28:38.232Z,1.62
2022-09-03T14:32:07.558Z,1.60
2022-09-03T14:35:16.587Z,1.58
2022-09-03T14:38:37.330Z,1.90
2022-09-03T14:41:59.922Z,1.42
2022-09-03T14:45:27.167Z,1.40
2022-09-03T14:48:53.800Z,2.50
2022-09-03T14:52:47.030Z,1.23
2022-09-03T14:56:09.926Z,1.20
2022-09-03T14:59:18.049Z,1.58
2022-09-03T15:02:52.790Z,1.35
2022-09-03T15:06:12.990Z,1.40
2022-09-03T15:09:15.187Z,1.50
2022-09-03T15:12:23.200Z,1.42
2022-09-03T15:15:52.945Z,1.30
2022-09-03T15:19:07.867Z,1.33
2022-09-03T15:22:54.275Z,2.05
2022-09-03T15:26:22.280Z,1.55
2022-09-03T15:29:30.622Z,1.40
2022-09-03T15:32:43.960Z,1.40
2022-09-03T15:35:59.721Z,1.55
2022-09-03T15:39:47.203Z,1.70
2022-09-03T15:42:54.961Z,1.85
2022-09-03T15:46:03.122Z,1.50
2022-09-03T15:49:32.548Z,1.30
2022-09-03T15:52:49.371Z,1.45
2022-09-03T15:56:13.908Z,1.50
2022-09-03T15:59:38.195Z,1.30
2022-09-03T16:02:42.613Z,1.60
2022-09-03T16:05:50.881Z,1.52
2022-09-03T16:08:55.879Z,1.27
2022-09-03T16:12:22.199Z,1.42
2022-09-03T16:15:38.587Z,1.35
2022-09-03T16:18:49.871Z,1.48
2022-09-03T16:22:27.802Z,1.33
2022-09-03T16:25:35.614Z,1.30
2022-09-03T16:28:44.933Z,1.58
2022-09-03T16:32:08.920Z,1.40
2022-09-03T16:35:28.231Z,1.60
2022-09-03T16:39:19.823Z,1.98
2022-09-03T16:42:37.050Z,1.40
2022-09-03T16:45:49.112Z,1.27
2022-09-03T16:49:38.314Z,1.30
2022-09-03T16:53:04.550Z,1.20
2022-09-03T16:56:34.222Z,1.42
2022-09-03T17:00:11.264Z,1.52
2022-09-03T17:03:40.398Z,1.42
2022-09-03T17:06:50.851Z,1.50
2022-09-03T17:09:56.611Z,1.77
2022-09-03T17:13:26.599Z,1.60
2022-09-03T17:16:41.799Z,1.70
2022-09-03T17:20:02.986Z,1.60
2022-09-03T17:26:21.866Z,1.62
2022-09-03T17:29:43.174Z,2.20
2022-09-03T17:33:21.098Z,1.87
2022-09-03T17:36:27.949Z,1.70
2022-09-03T17:39:42.925Z,1.55
2022-09-03T17:43:14.934Z,1.40
2022-09-03T17:46:34.615Z,2.10
2022-09-03T17:49:45.322Z,2.05
2022-09-03T17:52:50.606Z,2.40
2022-09-03T17:56:02.906Z,2.17
2022-09-03T17:59:14.102Z,2.75
2022-09-03T18:05:25.810Z,2.25
2022-09-03T18:08:43.577Z,2.30
2022-09-03T18:12:08.185Z,2.53
2022-09-03T18:15:48.510Z,3.30
2022-09-03T18:18:52.420Z,3.10
2022-09-03T18:22:20.870Z,4.05
2022-09-03T18:25:43.258Z,3.45
2022-09-03T18:29:25.998Z,5.20
2022-09-03T18:32:48.918Z,4.10
2022-09-03T18:36:09.734Z,2.65
2022-09-03T18:39:30.659Z,3.45
2022-09-03T18:43:34.204Z,3.53
2022-09-03T18:50:54.535Z,3.95
2022-09-03T18:55:06.168Z,3.08
2022-09-03T18:58:43.386Z,3.03
2022-09-03T19:02:04.143Z,4.10
2022-09-03T19:05:49.548Z,3.35
2022-09-03T19:09:57.244Z,3.22
2022-09-03T19:13:31.085Z,4.12
2022-09-03T19:17:20.058Z,3.17
2022-09-03T19:20:47.740Z,2.53
2022-09-03T19:24:09.087Z,2.80
2022-09-03T19:27:58.876Z,2.67
2022-09-03T19:31:49.309Z,3.30
2022-09-03T19:35:39.503Z,4.00
2022-09-03T19:39:28.744Z,3.65
2022-09-03T19:43:01.965Z,4.32
2022-09-03T19:46:46.164Z,3.90
2022-09-03T19:50:22.294Z,3.85
2022-09-03T19:53:43.184Z,3.65
2022-09-03T19:57:04.984Z,3.17
2022-09-03T20:00:31.296Z,3.10
2022-09-03T20:03:54.498Z,3.03
2022-09-03T20:07:17.169Z,2.80
2022-09-03T20:10:22.799Z,3.20
2022-09-03T20:13:25.384Z,3.80
2022-09-03T20:16:27.580Z,3.08
2022-09-03T20:19:50.981Z,3.00
2022-09-03T20:23:36.775Z,2.80
2022-09-03T20:27:00.968Z,3.20
2022-09-03T20:30:06.487Z,2.92
2022-09-03T20:33:22.860Z,3.42
2022-09-03T20:37:05.559Z,2.97
2022-09-03T20:40:19.807Z,3.25
2022-09-03T20:43:43.086Z,3.00
2022-09-03T20:47:06.480Z,3.50
2022-09-03T20:50:43.709Z,3.55
2022-09-03T20:54:05.655Z,3.40
2022-09-03T20:57:18.858Z,2.65
2022-09-03T21:00:22.924Z,4.37
2022-09-03T21:03:37.607Z,3.35
2022-09-03T21:07:04.654Z,3.28
2022-09-03T21:10:13.569Z,2.97
2022-09-03T21:13:47.555Z,2.92
2022-09-03T21:17:21.383Z,2.50
2022-09-03T21:20:47.506Z,2.80
2022-09-03T21:24:29.816Z,3.85
2022-09-03T21:27:39.289Z,5.28
2022-09-03T21:30:46.482Z,4.85
2022-09-03T21:33:54.183Z,4.10
2022-09-03T21:36:57.167Z,11.68
2022-09-03T21:39:59.508Z,6.72
2022-09-03T21:43:35.280Z,7.40
2022-09-03T21:46:54.479Z,10.00
2022-09-03T21:50:16.687Z,9.13
2022-09-03T21:53:33.286Z,5.05
2022-09-03T21:56:38.201Z,3.95
2022-09-03T22:00:05.837Z,4.37
2022-09-03T22:03:10.447Z,3.78
2022-09-03T22:06:23.776Z,4.47
2022-09-03T22:09:31.874Z,5.00
2022-09-03T22:12:36.913Z,5.50
2022-09-03T22:15:39.471Z,5.80
2022-09-03T22:18:44.222Z,5.20
2022-09-03T22:21:59.782Z,6.25
2022-09-03T22:25:07.060Z,5.43
2022-09-03T22:28:28.638Z,5.22
2022-09-03T22:31:46.374Z,5.60
2022-09-03T22:34:57.304Z,5.43
2022-09-03T22:38:24.533Z,4.75
2022-09-03T22:41:30.488Z,4.37
2022-09-03T22:44:49.290Z,4.30
2022-09-03T22:48:29.285Z,3.42
2022-09-03T22:51:51.302Z,3.97
2022-09-03T22:55:25.445Z,3.53
2022-09-03T22:58:33.174Z,3.60
2022-09-03T23:01:35.369Z,3.35
2022-09-03T23:04:47.910Z,3.25
2022-09-03T23:08:15.428Z,3.47
2022-09-03T23:11:43.954Z,3.17
2022-09-03T23:14:51.572Z,3.55
2022-09-03T23:18:05.431Z,3.37
2022-09-03T23:21:39.212Z,3.15
2022-09-03T23:24:54.039Z,3.62
2022-09-03T23:28:03.535Z,3.30
2022-09-03T23:31:32.153Z,3.47
2022-09-03T23:34:34.663Z,3.55
2022-09-03T23:38:09.113Z,3.62
2022-09-03T23:41:18.338Z,3.70
2022-09-03T23:44:33.354Z,3.60
2022-09-03T23:47:45.848Z,3.40
2022-09-03T23:51:07.213Z,3.67
2022-09-03T23:54:19.776Z,3.47
2022-09-03T23:57:42.239Z,3.53
